Time;durP1;ratioP1;P1;durP2;ratioP2;P2;SDS_P1;SDS_P2;PMS_P1;PMS_P2;Temp;Humidity;BMP_temperature;BMP_pressure;BME280_temperature;BME280_humidity;BME280_pressure;Samples;Min_cycle;Max_cycle;Signal;HPM_P1;HPM_P2
2024/01/04 00:00:56;;;;;;;9.10;5.95;;;;;;;9.66;82.94;100698.63;5067533;28;20382;-87
2024/01/04 00:03:26;;;;;;;8.27;5.53;;;;;;;9.84;82.67;100727.47;5064736;28;20504;-87
2024/01/04 00:06:19;;;;;;;;;;;;;;;;;;;;;
2024/01/04 00:08:46;;;;;;;9.35;6.10;;;;;;;9.73;82.21;100728.53;5081471;28;20399;-88
2024/01/04 00:11:13;;;;;;;8.65;5.80;;;;;;;9.96;82.47;100758.53;5085767;28;20028;-88
2024/01/04 00:13:42;;;;;;;10.57;6.45;;;;;;;10.09;82.16;100779.25;5087735;28;20085;-90
2024/01/04 00:16:12;;;;;;;8.65;5.82;;;;;;;9.51;82.11;100677.81;5071897;28;20031;-90
2024/01/04 00:18:39;;;;;;;8.25;5.47;;;;;;;9.66;81.98;100719.47;5069630;28;20079;-90
2024/01/04 00:21:05;;;;;;;8.60;5.32;;;;;;;9.71;81.83;100727.56;5073900;28;20035;-90
2024/01/04 00:23:35;;;;;;;;;;;;;;;10.20;81.69;100803.34;5090092;28;20102;-89
2024/01/04 00:26:01;;;;;;;9.15;5.95;;;;;;;9.95;82.25;100772.41;5084715;28;19918;-89
2024/01/04 00:28:27;;;;;;;8.30;5.75;;;;;;;9.95;81.89;100778.50;5071212;28;20032;-89
2024/01/04 00:30:54;;;;;;;8.85;5.80;;;;;;;10.11;82.22;100802.84;5069211;28;20044;-90
2024/01/04 00:33:21;;;;;;;9.02;5.90;;;;;;;9.85;81.93;100757.03;5077860;28;20031;-89
2024/01/04 00:35:56;;;;;;;8.63;5.78;;;;;;;9.64;82.15;100713.28;5072645;28;20067;-86
2024/01/04 00:38:24;;;;;;;9.20;6.15;;;;;;;9.49;81.88;100687.25;5071015;28;20589;-88
2024/01/04 00:40:51;;;;;;;8.07;5.40;;;;;;;10.03;81.79;100784.13;5065931;28;20029;-90
2024/01/04 00:43:18;;;;;;;8.68;5.90;;;;;;;9.76;81.50;100728.75;5085873;28;20060;-90
2024/01/04 00:45:44;;;;;;;7.97;5.57;;;;;;;9.66;81.49;100710.78;5069623;28;20070;-90
2024/01/04 00:48:09;;;;;;;8.65;5.78;;;;;;;9.75;82.18;100706.06;5076152;28;20055;-90
2024/01/04 00:50:42;;;;;;;7.75;5.45;;;;;;;9.79;82.34;100713.25;5071215;28;20035;-90
2024/01/04 00:53:09;;;;;;;8.60;5.47;;;;;;;10.19;81.87;100780.69;5075661;28;20032;-91
2024/01/04 00:55:42;;;;;;;8.70;5.38;;;;;;;10.05;81.91;100748.59;5086852;28;20031;-90
2024/01/04 00:58:08;;;;;;;7.53;5.05;;;;;;;10.05;81.81;100746.00;5070970;28;20033;-88
2024/01/04 01:00:33;;;;;;;8.60;5.53;;;;;;;10.04;81.95;100749.44;5089814;28;20485;-90
2024/01/04 01:03:01;;;;;;;8.23;5.45;;;;;;;9.82;81.86;100703.00;5092211;28;20032;-90
2024/01/04 01:05:27;;;;;;;8.15;5.40;;;;;;;9.99;82.43;100730.03;5076424;28;20093;-91
2024/01/04 01:07:52;;;;;;;8.05;5.35;;;;;;;10.08;82.71;100742.69;5093421;28;20032;-91
2024/01/04 01:10:21;;;;;;;8.85;5.32;;;;;;;10.15;82.45;100752.63;5078734;28;20032;-91
2024/01/04 01:12:46;;;;;;;7.97;5.32;;;;;;;10.23;81.89;100761.78;5081270;28;20038;-91
2024/01/04 01:15:13;;;;;;;8.75;5.50;;;;;;;10.18;81.72;100764.16;5091081;28;20027;-90
2024/01/04 01:17:40;;;;;;;8.73;5.60;;;;;;;9.86;81.88;100706.66;5076598;28;20043;-91
2024/01/04 01:20:07;;;;;;;8.23;5.35;;;;;;;9.82;81.50;100694.25;5078977;28;20031;-91
2024/01/04 01:22:36;;;;;;;8.00;5.25;;;;;;;9.67;81.75;100673.44;5073017;28;20493;-91
2024/01/04 01:25:01;;;;;;;9.10;5.88;;;;;;;9.77;81.67;100686.19;5066750;28;20173;-91
2024/01/04 01:27:27;;;;;;;8.95;5.15;;;;;;;10.04;82.15;100730.28;5076948;28;20111;-91
2024/01/04 01:29:53;;;;;;;7.10;5.18;;;;;;;10.10;81.80;100738.44;5069259;28;20404;-91
2024/01/04 01:32:21;;;;;;;8.98;5.65;;;;;;;9.83;82.01;100694.34;5071009;28;20028;-92
2024/01/04 01:34:48;;;;;;;8.00;5.25;;;;;;;10.07;82.01;100727.81;5079333;28;20039;-90
2024/01/04 01:37:15;;;;;;;8.27;5.45;;;;;;;9.80;81.83;100686.38;5068188;28;20056;-90
2024/01/04 01:39:43;;;;;;;7.85;5.35;;;;;;;9.61;82.27;100666.19;5076103;28;20564;-91
2024/01/04 01:42:11;;;;;;;8.25;5.40;;;;;;;9.82;81.89;100695.19;5076109;28;20032;-91
2024/01/04 01:44:40;;;;;;;8.43;5.40;;;;;;;10.19;82.24;100746.78;5080332;28;20484;-91
2024/01/04 01:47:06;;;;;;;7.65;4.88;;;;;;;9.57;82.19;100640.75;5077268;28;20040;-90
2024/01/04 01:49:33;;;;;;;7.40;4.85;;;;;;;9.94;81.96;100703.66;5073773;28;20020;-89
2024/01/04 01:51:59;;;;;;;7.13;4.80;;;;;;;10.05;82.33;100711.19;5062648;28;20028;-90
2024/01/04 01:54:26;;;;;;;7.85;5.00;;;;;;;9.73;82.03;100660.75;5086566;28;20382;-88
2024/01/04 01:56:51;;;;;;;8.02;5.30;;;;;;;9.66;81.83;100661.22;5070964;28;20036;-89
2024/01/04 01:59:17;;;;;;;7.25;4.82;;;;;;;9.68;81.34;100668.31;5075332;28;20042;-89
2024/01/04 02:01:45;;;;;;;7.88;4.88;;;;;;;9.84;81.66;100690.94;5076436;28;20028;-89
2024/01/04 02:04:11;;;;;;;7.30;5.00;;;;;;;9.86;82.05;100704.03;5072065;28;20033;-89
2024/01/04 02:06:37;;;;;;;8.63;5.20;;;;;;;9.72;81.43;100680.72;5071654;28;20031;-89
2024/01/04 02:09:02;;;;;;;6.07;4.40;;;;;;;9.76;81.63;100692.22;5066524;28;20036;-88
2024/01/04 02:11:28;;;;;;;7.38;5.00;;;;;;;10.02;82.44;100745.84;5093444;28;20497;-89
2024/01/04 02:13:55;;;;;;;6.95;4.75;;;;;;;9.77;81.76;100689.69;5091716;28;20035;-90
2024/01/04 02:16:21;;;;;;;7.53;4.80;;;;;;;9.79;82.13;100695.00;5071414;28;20028;-89
2024/01/04 02:18:47;;;;;;;7.68;5.15;;;;;;;9.77;82.33;100694.91;5075178;28;20027;-89
2024/01/04 02:21:12;;;;;;;6.70;4.15;;;;;;;9.87;82.11;100706.75;5068047;28;20420;-88
2024/01/04 02:23:38;;;;;;;7.40;4.95;;;;;;;9.86;82.55;100714.47;5091250;28;20457;-89
2024/01/04 02:26:04;;;;;;;8.13;5.40;;;;;;;9.90;82.43;100742.53;5072794;28;20089;-89
2024/01/04 02:28:37;;;;;;;6.53;4.68;;;;;;;9.76;82.52;100707.88;5073726;28;20024;-90
2024/01/04 02:31:02;;;;;;;7.40;5.20;;;;;;;10.13;82.29;100781.25;5073092;28;20039;-89
2024/01/04 02:33:28;;;;;;;7.15;5.10;;;;;;;9.90;82.58;100732.09;5076193;28;20023;-89
2024/01/04 02:36:04;;;;;;;7.50;5.07;;;;;;;9.51;82.44;100675.19;5069288;28;20023;-91
2024/01/04 02:38:30;;;;;;;6.88;4.75;;;;;;;9.93;82.13;100753.16;5067483;28;20036;-90
2024/01/04 02:40:56;;;;;;;8.45;5.00;;;;;;;10.07;82.83;100780.88;5075511;28;20047;-89
2024/01/04 02:43:25;;;;;;;6.25;4.57;;;;;;;9.46;82.43;100665.31;5068571;28;20024;-89
2024/01/04 02:45:51;;;;;;;8.30;5.15;;;;;;;9.55;81.98;100671.06;5073562;28;20578;-90
2024/01/04 02:48:18;;;;;;;7.95;5.25;;;;;;;9.97;82.19;100761.22;5073704;28;20032;-90
2024/01/04 02:50:44;;;;;;;8.15;5.10;;;;;;;9.59;82.25;100699.09;5072842;28;20390;-90
2024/01/04 02:53:09;;;;;;;8.30;4.93;;;;;;;9.62;82.79;100706.19;5073769;28;20161;-90
2024/01/04 02:55:35;;;;;;;10.95;5.57;;;;;;;10.01;82.70;100762.28;5070427;28;20410;-90
2024/01/04 02:58:02;;;;;;;6.93;4.95;;;;;;;9.37;82.85;100652.66;5073363;28;20398;-90
2024/01/04 03:00:29;;;;;;;8.20;5.47;;;;;;;9.78;82.78;100720.19;5070960;28;20033;-90
2024/01/04 03:02:55;;;;;;;7.75;4.93;;;;;;;9.72;83.52;100721.53;5079380;28;20032;-90
2024/01/04 03:05:40;;;;;;;9.48;4.72;;;;;;;10.10;82.73;100777.59;5074425;28;20120;-90
2024/01/04 03:08:10;;;;;;;8.07;5.13;;;;;;;9.83;82.90;100723.03;5065459;28;20036;-90
2024/01/04 03:10:37;;;;;;;6.30;4.47;;;;;;;10.13;82.09;100773.41;5071500;28;20055;-89
2024/01/04 03:13:03;;;;;;;6.53;4.70;;;;;;;9.84;82.40;100735.28;5067725;28;20490;-90
2024/01/04 03:15:30;;;;;;;7.93;4.82;;;;;;;9.85;82.22;100726.63;5071286;28;20031;-89
2024/01/04 03:17:57;;;;;;;7.40;4.70;;;;;;;10.12;82.13;100781.19;5085160;28;20520;-89
2024/01/04 03:20:22;;;;;;;7.55;5.03;;;;;;;9.71;81.84;100699.75;5073049;28;20654;-89
2024/01/04 03:22:50;;;;;;;6.85;4.68;;;;;;;9.93;82.19;100740.13;5065932;28;20039;-88
2024/01/04 03:25:16;;;;;;;6.78;4.45;;;;;;;9.87;82.15;100729.34;5072944;28;20412;-90
2024/01/04 03:27:44;;;;;;;7.05;4.65;;;;;;;9.80;82.00;100725.50;5070496;28;20040;-90
2024/01/04 03:30:10;;;;;;;8.15;4.80;;;;;;;9.71;82.38;100720.63;5067984;28;20043;-90
2024/01/04 03:32:36;;;;;;;6.97;4.70;;;;;;;10.01;82.00;100766.59;5073128;28;20032;-92
2024/01/04 03:35:05;;;;;;;;;;;;;;;10.12;82.10;100799.44;5061882;28;20494;-89
2024/01/04 03:37:31;;;;;;;6.47;4.40;;;;;;;9.87;82.41;100756.31;5085843;28;19989;-89
2024/01/04 03:40:03;;;;;;;7.47;4.40;;;;;;;9.95;82.75;100781.13;5090403;28;20526;-89
2024/01/04 03:42:32;;;;;;;7.47;4.70;;;;;;;9.68;82.75;100733.50;5088961;28;20063;-90
2024/01/04 03:44:57;;;;;;;7.07;4.82;;;;;;;9.74;83.05;100751.22;5069364;28;20031;-90
2024/01/04 03:47:27;;;;;;;8.25;4.97;;;;;;;9.87;82.79;100766.75;5080290;28;20036;-90
2024/01/04 03:50:02;;;;;;;8.38;5.05;;;;;;;9.72;83.31;100745.91;5069464;28;20487;-89
2024/01/04 03:52:30;;;;;;;6.55;4.63;;;;;;;9.93;83.22;100794.88;5074669;28;20024;-90
2024/01/04 03:55:00;;;;;;;6.85;4.65;;;;;;;9.92;83.21;100793.06;5082497;28;20565;-90
2024/01/04 03:57:26;;;;;;;7.70;4.80;;;;;;;9.87;83.25;100790.22;5075160;28;20020;-92
2024/01/04 03:59:54;;;;;;;7.60;5.10;;;;;;;9.67;83.15;100749.06;5068147;28;20120;-89
2024/01/04 04:02:21;;;;;;;7.82;5.32;;;;;;;10.04;83.24;100818.97;5073579;28;20515;-89
2024/01/04 04:04:47;;;;;;;7.15;4.95;;;;;;;9.71;82.98;100764.94;5067652;28;20028;-89
2024/01/04 04:07:13;;;;;;;7.72;4.82;;;;;;;9.66;83.50;100750.78;5084162;28;20521;-90
2024/01/04 04:09:39;;;;;;;7.07;4.55;;;;;;;9.66;83.31;100744.66;5069945;28;20028;-90
2024/01/04 04:12:07;;;;;;;8.52;5.10;;;;;;;9.62;83.32;100750.50;5075637;28;20766;-90
2024/01/04 04:14:34;;;;;;;7.10;5.10;;;;;;;9.56;83.56;100744.13;5070690;28;20024;-90
2024/01/04 04:17:06;;;;;;;6.50;4.53;;;;;;;9.65;83.24;100756.81;5070673;28;20572;-91
2024/01/04 04:19:34;;;;;;;8.07;5.28;;;;;;;9.47;83.68;100740.09;5079160;28;20032;-89
2024/01/04 04:22:05;;;;;;;6.95;4.35;;;;;;;10.03;83.39;100838.03;5068957;28;20040;-90
2024/01/04 04:24:32;;;;;;;6.32;4.55;;;;;;;9.46;83.43;100744.41;5075753;28;20492;-89
2024/01/04 04:26:58;;;;;;;7.85;5.10;;;;;;;9.99;83.79;100840.47;5073011;28;20051;-90
2024/01/04 04:29:24;;;;;;;8.65;5.40;;;;;;;9.49;83.32;100756.72;5082977;28;20059;-89
2024/01/04 04:31:50;;;;;;;7.68;4.85;;;;;;;9.83;83.24;100824.75;5075774;28;20036;-89
2024/01/04 04:34:15;;;;;;;7.43;4.95;;;;;;;9.63;83.86;100778.38;5088640;28;20024;-91
2024/01/04 04:36:44;;;;;;;7.45;4.65;;;;;;;10.02;83.52;100850.19;5070218;28;20101;-90
2024/01/04 04:39:11;;;;;;;7.50;5.03;;;;;;;9.66;83.30;100789.00;5082150;28;20412;-90
2024/01/04 04:41:39;;;;;;;6.47;4.63;;;;;;;9.93;83.56;100855.78;5070011;28;20036;-90
2024/01/04 04:44:19;;;;;;;;;;;;;;;;;;;;;
2024/01/04 04:47:32;;;;;;;;;;;;;;;;;;;;;
2024/01/04 04:49:58;;;;;;;6.60;4.55;;;;;;;9.90;83.70;100845.16;5021031;28;20060;-89
2024/01/04 04:52:24;;;;;;;6.35;4.35;;;;;;;9.81;83.50;100834.19;5084207;28;20398;-88
2024/01/04 04:54:50;;;;;;;6.25;4.40;;;;;;;9.74;83.71;100824.22;5084769;28;20032;-89
2024/01/04 04:57:15;;;;;;;6.47;4.38;;;;;;;9.96;83.35;100862.88;5074644;28;20745;-88
2024/01/04 04:59:41;;;;;;;7.22;4.80;;;;;;;9.75;83.76;100826.91;5102728;28;20032;-89
2024/01/04 05:02:07;;;;;;;7.07;4.57;;;;;;;9.61;83.48;100806.06;5070619;28;20034;-88
2024/01/04 05:04:33;;;;;;;7.22;4.93;;;;;;;9.71;83.43;100814.50;5087064;28;20024;-89
2024/01/04 05:07:02;;;;;;;6.93;4.78;;;;;;;9.99;83.46;100869.19;5083866;28;20028;-89
2024/01/04 05:09:28;;;;;;;6.63;4.63;;;;;;;9.56;83.42;100798.84;5081313;28;20078;-88
2024/01/04 05:11:54;;;;;;;6.43;4.72;;;;;;;9.48;83.43;100776.69;5084724;28;20016;-89
2024/01/04 05:14:19;;;;;;;7.18;5.05;;;;;;;9.72;83.46;100818.91;5100629;28;20075;-89
2024/01/04 05:16:47;;;;;;;6.88;4.40;;;;;;;9.74;83.90;100832.94;5083022;28;20028;-88
2024/01/04 05:19:16;;;;;;;7.45;4.80;;;;;;;9.67;83.39;100814.22;5068819;28;20071;-88
2024/01/04 05:21:41;;;;;;;7.03;4.57;;;;;;;9.90;83.54;100857.28;5077588;28;20058;-88
2024/01/04 05:24:07;;;;;;;6.75;4.50;;;;;;;9.66;83.11;100802.91;5083872;28;20461;-88
2024/01/04 05:26:33;;;;;;;6.00;4.18;;;;;;;9.79;83.06;100835.81;5088334;28;20593;-87
2024/01/04 05:28:58;;;;;;;6.28;4.20;;;;;;;10.06;82.57;100875.66;5066311;28;20098;-86
2024/01/04 05:31:25;;;;;;;7.60;4.95;;;;;;;10.07;82.39;100880.03;5094897;28;20032;-86
2024/01/04 05:33:51;;;;;;;6.53;4.45;;;;;;;9.66;82.88;100815.06;5085590;28;20101;-89
2024/01/04 05:36:16;;;;;;;6.25;4.38;;;;;;;9.86;82.84;100850.09;5082557;28;20494;-86
2024/01/04 05:38:42;;;;;;;6.47;4.68;;;;;;;9.78;83.09;100829.72;5082305;28;20106;-87
2024/01/04 05:41:08;;;;;;;6.25;4.28;;;;;;;9.65;82.79;100808.94;5101447;28;20118;-88
2024/01/04 05:43:34;;;;;;;5.22;3.78;;;;;;;10.08;82.82;100870.53;5079755;28;20097;-87
2024/01/04 05:46:04;;;;;;;6.57;4.20;;;;;;;9.87;82.30;100837.16;5084181;28;20040;-91
2024/01/04 05:48:30;;;;;;;6.18;3.83;;;;;;;9.87;82.35;100833.66;5073794;28;20531;-89
2024/01/04 05:50:56;;;;;;;6.18;4.20;;;;;;;9.99;82.45;100857.84;5086430;28;20032;-86
2024/01/04 05:53:22;;;;;;;5.78;4.00;;;;;;;10.02;82.37;100860.63;5098346;27;20619;-87
2024/01/04 05:55:48;;;;;;;5.97;3.97;;;;;;;9.84;82.72;100851.72;5100676;28;20031;-87
2024/01/04 05:58:14;;;;;;;5.60;3.85;;;;;;;10.00;83.44;100888.34;5064310;28;20032;-88
2024/01/04 06:00:40;;;;;;;5.50;3.90;;;;;;;9.63;83.12;100823.59;5066516;28;20036;-86
2024/01/04 06:03:06;;;;;;;5.78;3.90;;;;;;;9.44;83.36;100779.00;5084468;28;20623;-86
2024/01/04 06:05:31;;;;;;;6.32;4.18;;;;;;;9.76;82.95;100825.22;5083488;28;20528;-86
2024/01/04 06:07:57;;;;;;;5.47;4.03;;;;;;;9.80;83.30;100832.41;5064562;28;20520;-87
2024/01/04 06:10:23;;;;;;;5.95;4.47;;;;;;;9.87;83.13;100837.16;5087501;28;20034;-89
2024/01/04 06:12:48;;;;;;;6.40;4.13;;;;;;;9.94;83.16;100854.06;5089374;28;20096;-86
2024/01/04 06:15:14;;;;;;;6.03;4.30;;;;;;;9.83;83.09;100832.56;5065001;28;20068;-86
2024/01/04 06:17:40;;;;;;;5.97;4.10;;;;;;;10.02;83.39;100863.22;5071862;28;20039;-87
2024/01/04 06:20:06;;;;;;;6.57;4.50;;;;;;;9.65;83.21;100800.22;5087338;28;20089;-87
2024/01/04 06:22:32;;;;;;;5.70;4.03;;;;;;;9.74;83.32;100813.81;5087044;28;20040;-87
2024/01/04 06:24:57;;;;;;;6.10;4.50;;;;;;;9.80;83.30;100835.03;5068386;28;20555;-87
2024/01/04 06:27:23;;;;;;;4.90;3.85;;;;;;;9.75;83.15;100831.22;5088268;28;20421;-86
2024/01/04 06:29:49;;;;;;;5.53;3.85;;;;;;;9.60;83.19;100806.88;5085569;28;20028;-86
2024/01/04 06:32:14;;;;;;;5.90;4.13;;;;;;;10.01;83.13;100877.06;5089595;28;20027;-86
2024/01/04 06:34:41;;;;;;;6.32;4.10;;;;;;;9.92;82.65;100859.19;5082713;28;20038;-87
2024/01/04 06:37:06;;;;;;;;;;;;;;;10.07;82.61;100876.53;5084567;28;20039;-86
2024/01/04 06:39:32;;;;;;;6.45;4.03;;;;;;;9.92;82.66;100867.00;5086084;28;20437;-88
2024/01/04 06:41:58;;;;;;;4.97;3.83;;;;;;;9.82;83.23;100846.44;5086150;28;20755;-87
2024/01/04 06:44:23;;;;;;;6.05;4.28;;;;;;;9.89;83.13;100859.00;5084712;28;20032;-88
2024/01/04 06:46:49;;;;;;;5.40;3.80;;;;;;;9.68;83.15;100829.09;5088377;28;20042;-85
2024/01/04 06:49:15;;;;;;;5.55;3.72;;;;;;;9.68;83.02;100829.97;5085093;28;20020;-85
2024/01/04 06:51:40;;;;;;;6.30;4.50;;;;;;;9.92;83.19;100869.63;5086839;28;20039;-86
2024/01/04 06:54:06;;;;;;;7.93;4.30;;;;;;;9.99;83.33;100874.41;5084099;28;20071;-86
2024/01/04 06:56:32;;;;;;;6.43;4.20;;;;;;;9.76;83.29;100835.66;5081243;28;20042;-86
2024/01/04 06:58:57;;;;;;;4.78;3.50;;;;;;;9.75;83.27;100828.63;5083316;28;20122;-85
2024/01/04 07:01:23;;;;;;;5.68;3.97;;;;;;;9.91;82.89;100846.97;5087601;28;20024;-85
2024/01/04 07:03:49;;;;;;;5.50;3.92;;;;;;;10.04;82.83;100861.63;5084893;28;20033;-86
2024/01/04 07:06:15;;;;;;;5.95;3.90;;;;;;;9.91;82.78;100831.31;5083275;28;20103;-86
2024/01/04 07:08:41;;;;;;;5.07;3.92;;;;;;;9.77;82.59;100798.31;5074710;28;20123;-83
2024/01/04 07:11:06;;;;;;;5.57;3.90;;;;;;;10.03;82.88;100840.63;5085185;28;20457;-88
2024/01/04 07:13:35;;;;;;;6.07;4.00;;;;;;;9.86;82.63;100811.88;5086977;28;20029;-89
2024/01/04 07:16:04;;;;;;;5.70;4.05;;;;;;;10.06;83.14;100846.06;5083203;28;20016;-87
2024/01/04 07:18:30;;;;;;;5.57;3.90;;;;;;;9.78;83.17;100802.75;5088235;28;20482;-86
2024/01/04 07:20:56;;;;;;;6.00;4.13;;;;;;;9.82;82.44;100817.75;5086105;28;20087;-88
2024/01/04 07:23:21;;;;;;;4.88;3.78;;;;;;;9.88;83.00;100822.41;5078942;28;20414;-87
2024/01/04 07:25:47;;;;;;;6.53;4.10;;;;;;;9.65;82.62;100779.34;5084626;28;20138;-88
2024/01/04 07:28:13;;;;;;;5.93;4.10;;;;;;;10.07;82.73;100847.84;5088183;28;20105;-86
2024/01/04 07:30:38;;;;;;;5.53;3.85;;;;;;;9.94;82.52;100815.81;5079367;28;20020;-86
2024/01/04 07:33:10;;;;;;;6.82;4.05;;;;;;;9.92;82.88;100814.84;5070266;28;20116;-89
2024/01/04 07:35:39;;;;;;;6.07;3.95;;;;;;;9.97;82.97;100828.16;5089829;28;20032;-89
2024/01/04 07:38:05;;;;;;;5.07;3.47;;;;;;;9.52;82.61;100749.06;5070119;28;20048;-89
2024/01/04 07:40:30;;;;;;;4.80;3.97;;;;;;;9.81;83.06;100805.50;5087058;28;20486;-90
2024/01/04 07:42:56;;;;;;;5.43;3.75;;;;;;;9.86;82.65;100814.47;5061477;28;20044;-90
2024/01/04 07:45:23;;;;;;;5.78;3.80;;;;;;;9.96;82.75;100832.47;5083709;28;20118;-89
2024/01/04 07:47:49;;;;;;;6.70;4.22;;;;;;;9.73;82.47;100781.59;5087804;28;20107;-87
2024/01/04 07:50:14;;;;;;;6.78;4.07;;;;;;;9.95;82.82;100820.25;5085906;28;20104;-89
2024/01/04 07:52:42;;;;;;;5.47;3.75;;;;;;;10.03;83.29;100832.81;5068863;28;20035;-90
2024/01/04 07:55:09;;;;;;;6.47;4.10;;;;;;;9.83;82.57;100792.56;5069205;28;20029;-88
2024/01/04 07:57:35;;;;;;;6.00;3.97;;;;;;;9.87;82.82;100802.38;5085705;28;20525;-88
2024/01/04 08:00:03;;;;;;;5.63;3.95;;;;;;;10.10;82.87;100840.19;5072705;28;20032;-88
2024/01/04 08:02:31;;;;;;;4.90;3.50;;;;;;;9.94;82.33;100807.09;5088117;28;20089;-90
2024/01/04 08:04:57;;;;;;;6.28;4.18;;;;;;;9.68;82.88;100766.50;5086419;28;20036;-90
2024/01/04 08:07:23;;;;;;;7.18;4.10;;;;;;;10.11;82.89;100840.25;5067267;28;20035;-87
2024/01/04 08:09:48;;;;;;;5.55;3.70;;;;;;;9.98;82.69;100823.00;5079831;28;20024;-89
2024/01/04 08:12:14;;;;;;;4.63;3.53;;;;;;;9.86;82.41;100787.50;5074688;28;20032;-89
2024/01/04 08:14:46;;;;;;;6.20;4.00;;;;;;;9.79;82.88;100774.13;5087767;28;20054;-90
2024/01/04 08:17:11;;;;;;;4.57;3.47;;;;;;;10.03;83.01;100820.66;5070892;28;20028;-89
2024/01/04 08:19:37;;;;;;;5.72;3.88;;;;;;;10.05;83.09;100824.25;5087058;28;20054;-85
2024/01/04 08:22:09;;;;;;;6.60;3.97;;;;;;;10.11;82.53;100818.50;5087732;28;20044;-92
2024/01/04 08:24:40;;;;;;;5.75;3.88;;;;;;;10.11;82.76;100834.16;5067107;28;20042;-90
2024/01/04 08:27:06;;;;;;;6.43;4.20;;;;;;;9.86;82.54;100777.06;5081908;28;20130;-93
2024/01/04 08:29:32;;;;;;;5.38;3.97;;;;;;;9.82;82.86;100773.41;5071577;28;20138;-88
2024/01/04 08:31:58;;;;;;;5.03;3.83;;;;;;;9.92;82.94;100783.53;5068379;28;20493;-88
2024/01/04 08:34:27;;;;;;;6.35;4.30;;;;;;;9.92;82.64;100788.75;5067476;28;20023;-90
2024/01/04 08:36:53;;;;;;;5.28;3.88;;;;;;;10.13;82.67;100817.75;5083867;28;20025;-88
2024/01/04 08:39:21;;;;;;;8.02;4.60;;;;;;;10.02;82.69;100786.69;5082886;28;20044;-89
2024/01/04 08:41:47;;;;;;;6.78;4.43;;;;;;;10.06;83.11;100796.47;5087765;28;20394;-86
2024/01/04 08:44:14;;;;;;;5.63;3.78;;;;;;;9.94;83.15;100768.88;5086437;28;20028;-88
2024/01/04 08:46:39;;;;;;;;;;;;;;;10.18;82.60;100802.38;5087940;28;20031;-89
2024/01/04 08:49:05;;;;;;;5.25;3.40;;;;;;;9.95;82.54;100759.34;5068840;28;20335;-88
2024/01/04 08:51:31;;;;;;;6.85;4.82;;;;;;;10.09;82.41;100786.19;5087958;28;20032;-89
2024/01/04 08:53:57;;;;;;;7.43;4.70;;;;;;;9.94;82.20;100760.16;5084943;28;20044;-88
2024/01/04 08:56:23;;;;;;;7.22;4.63;;;;;;;10.20;82.20;100782.47;5071315;28;20093;-87
2024/01/04 08:58:49;;;;;;;6.75;4.40;;;;;;;9.74;82.76;100706.88;5087866;28;20486;-88
2024/01/04 09:01:15;;;;;;;6.03;4.07;;;;;;;9.99;83.04;100743.06;5084492;28;20119;-88
2024/01/04 09:03:40;;;;;;;;;;;;;;;10.22;82.28;100766.91;5093824;28;20414;-87
2024/01/04 09:06:07;;;;;;;6.97;4.32;;;;;;;9.84;82.97;100713.50;5108311;28;20011;-87
2024/01/04 09:08:35;;;;;;;6.25;4.35;;;;;;;10.02;82.95;100742.34;5072843;28;20505;-87
2024/01/04 09:11:01;;;;;;;7.75;4.65;;;;;;;9.85;82.59;100700.56;5084763;28;20057;-90
2024/01/04 09:13:27;;;;;;;6.68;4.38;;;;;;;9.97;82.93;100716.88;5092698;28;20087;-86
2024/01/04 09:15:54;;;;;;;10.27;4.40;;;;;;;10.05;82.75;100727.72;5094036;28;20103;-87
2024/01/04 09:18:20;;;;;;;6.63;4.35;;;;;;;9.99;82.83;100698.72;5086672;28;20020;-89
2024/01/04 09:20:46;;;;;;;6.70;4.35;;;;;;;10.04;83.28;100707.69;5101991;28;20109;-88
2024/01/04 09:23:11;;;;;;;5.75;3.90;;;;;;;10.19;83.09;100723.28;5086211;28;20081;-88
2024/01/04 09:25:37;;;;;;;6.88;4.35;;;;;;;9.99;83.15;100681.34;5089741;28;20085;-87
2024/01/04 09:28:03;;;;;;;6.93;4.38;;;;;;;9.98;83.27;100673.44;5092354;28;20074;-87
2024/01/04 09:30:30;;;;;;;7.57;4.78;;;;;;;10.31;82.71;100730.94;5084806;28;20048;-87
2024/01/04 09:32:56;;;;;;;7.40;4.47;;;;;;;10.09;82.40;100671.41;5090965;28;20019;-88
2024/01/04 09:35:23;;;;;;;7.13;4.45;;;;;;;10.08;82.45;100667.91;5098403;28;20024;-87
2024/01/04 09:37:50;;;;;;;8.32;4.63;;;;;;;10.38;82.65;100714.78;5086907;28;20055;-87
2024/01/04 09:40:19;;;;;;;7.55;3.92;;;;;;;10.39;82.45;100716.56;5080771;28;20130;-87
2024/01/04 09:42:45;;;;;;;7.68;4.20;;;;;;;10.45;82.70;100716.88;5060297;28;20048;-87
2024/01/04 09:45:13;;;;;;;6.95;4.32;;;;;;;10.02;82.77;100627.56;5082708;28;20034;-87
2024/01/04 09:47:43;;;;;;;7.85;4.47;;;;;;;10.25;83.08;100654.88;5091477;28;20065;-87
2024/01/04 09:50:12;;;;;;;6.07;4.13;;;;;;;10.15;83.71;100636.09;5092177;28;20413;-87
2024/01/04 09:52:44;;;;;;;7.30;4.05;;;;;;;10.34;84.03;100655.38;5091694;28;20074;-87
2024/01/04 09:55:11;;;;;;;6.63;4.30;;;;;;;10.22;84.20;100632.09;5082895;28;20244;-87
2024/01/04 09:57:37;;;;;;;8.95;4.90;;;;;;;10.50;84.47;100680.59;5086441;28;20043;-88
2024/01/04 10:00:04;;;;;;;8.73;4.30;;;;;;;10.49;84.71;100663.13;5084717;28;20017;-87
2024/01/04 10:02:32;;;;;;;9.68;4.22;;;;;;;10.26;84.95;100609.69;5086506;28;20036;-88
2024/01/04 10:05:00;;;;;;;7.60;4.45;;;;;;;10.27;86.03;100620.22;5071163;28;20036;-87
2024/01/04 10:07:27;;;;;;;9.82;4.70;;;;;;;10.44;85.52;100634.19;5099913;28;20028;-88
2024/01/04 10:09:59;;;;;;;8.35;4.32;;;;;;;10.33;85.26;100615.34;5074506;28;20039;-88
2024/01/04 10:12:28;;;;;;;7.85;4.13;;;;;;;10.45;87.06;100617.69;5087164;28;20401;-88
2024/01/04 10:14:54;;;;;;;9.02;4.45;;;;;;;10.49;86.31;100611.81;5084481;28;20033;-88
2024/01/04 10:17:21;;;;;;;7.35;4.57;;;;;;;10.64;87.52;100637.81;5084479;28;20614;-88
2024/01/04 10:19:48;;;;;;;10.88;4.72;;;;;;;10.64;87.41;100636.91;5092320;28;20062;-88
2024/01/04 10:22:15;;;;;;;11.20;4.55;;;;;;;10.63;87.63;100624.69;5072321;28;20028;-87
2024/01/04 10:24:41;;;;;;;8.18;4.60;;;;;;;10.49;87.97;100598.75;5082041;28;20028;-88
2024/01/04 10:27:08;;;;;;;8.38;4.70;;;;;;;10.64;87.84;100624.75;5072602;28;20046;-88
2024/01/04 10:29:35;;;;;;;8.88;4.30;;;;;;;10.33;88.54;100580.53;5078721;28;20016;-89
2024/01/04 10:32:03;;;;;;;8.57;4.60;;;;;;;10.22;87.98;100545.09;5088721;28;20028;-89
2024/01/04 10:34:31;;;;;;;8.73;5.00;;;;;;;10.51;87.94;100584.06;5074847;28;20024;-89
2024/01/04 10:37:13;;;;;;;10.52;5.03;;;;;;;10.67;88.20;100609.25;5055275;28;20417;-87
2024/01/04 10:39:42;;;;;;;5.72;4.07;;;;;;;10.45;88.36;100556.75;5088706;28;20078;-88
2024/01/04 10:42:09;;;;;;;8.77;4.45;;;;;;;10.50;88.39;100560.50;5072273;28;20027;-88
2024/01/04 10:44:35;;;;;;;9.10;4.13;;;;;;;10.66;87.42;100581.34;5087463;28;20020;-89
2024/01/04 10:47:02;;;;;;;8.85;4.60;;;;;;;10.22;87.67;100493.78;5099349;28;20028;-89
2024/01/04 10:49:28;;;;;;;8.15;4.18;;;;;;;10.65;87.53;100568.22;5087676;28;20016;-89
2024/01/04 10:51:58;;;;;;;7.35;4.68;;;;;;;10.61;87.82;100550.59;5082915;28;20038;-87
2024/01/04 10:54:31;;;;;;;6.90;4.38;;;;;;;10.72;87.90;100559.88;5070592;28;20445;-87
2024/01/04 10:57:01;;;;;;;8.15;4.10;;;;;;;10.61;87.81;100537.56;5079965;28;20027;-86
2024/01/04 10:59:28;;;;;;;6.95;3.63;;;;;;;10.68;88.12;100550.09;5077919;28;20040;-87
2024/01/04 11:01:54;;;;;;;7.05;4.18;;;;;;;10.75;87.93;100560.94;5086894;28;20024;-87
2024/01/04 11:04:21;;;;;;;9.07;3.95;;;;;;;10.61;87.53;100520.16;5082510;28;20413;-89
2024/01/04 11:06:49;;;;;;;6.32;3.85;;;;;;;10.69;87.19;100528.34;5072897;28;20115;-88
2024/01/04 11:09:17;;;;;;;7.90;4.18;;;;;;;10.51;87.02;100482.25;5074455;28;20531;-89
2024/01/04 11:11:44;;;;;;;6.00;4.10;;;;;;;10.52;87.34;100484.06;5079094;28;20024;-89
2024/01/04 11:14:10;;;;;;;6.53;3.67;;;;;;;10.73;87.75;100518.16;5070824;28;20024;-89
2024/01/04 11:16:45;;;;;;;6.38;3.70;;;;;;;10.83;87.29;100516.88;5083586;28;20042;-89
2024/01/04 11:19:23;;;;;;;7.00;4.00;;;;;;;10.87;86.89;100510.09;5082829;28;20032;-87
2024/01/04 11:22:26;;;;;;;8.10;3.88;;;;;;;10.89;86.73;100503.22;5090106;28;20397;-87
2024/01/04 11:25:38;;;;;;;7.18;4.00;;;;;;;10.83;87.24;100474.19;5089565;28;20028;-89
2024/01/04 11:28:06;;;;;;;5.78;3.80;;;;;;;10.69;87.33;100452.63;5068844;28;20081;-88
2024/01/04 11:30:31;;;;;;;6.88;3.83;;;;;;;10.75;87.13;100456.47;5077709;28;20024;-87
2024/01/04 11:32:57;;;;;;;7.57;4.13;;;;;;;10.49;87.49;100416.00;5096195;28;20118;-87
2024/01/04 11:35:23;;;;;;;7.38;3.88;;;;;;;10.73;87.09;100437.19;5091580;28;20032;-87